Hlavní strana
METAR-TAF:

METAR-TAF

Letiště :

Damašek, Sýrie

zeměpisná šířka: 33-25N, zeměpisná délka: 036-31E, výška: 608 m

Aktuální stav počasí

Zpráva byla vytvořena před 1 hodinou a 7 minutami, v 22:00 UTC
Východoseverovýchodní vítr 14 kt
Teplota 10°C
Vlhkost vzduchu 66%
Tlak 1017 hPa
Skoro jasno ve výšce 3000 ft
Polojasno ve výšce 10000 ft

METAR: OSDI 182200Z 06014KT 9999-RA FEW030 SCT100 10/04 Q1017

Čas: 01:07 (23:07 UTC)

Předpověď počasí

Zpráva byla vytvořena před 7 hodinami a 7 minutami, v 16:00 UTC
Předpověď platná od 18 v 18 UTC do 19 v 24 UTC
Jihozápadní vítr 10 kt
Viditelnost 10 km a více
Skoro jasno ve výšce 3000 ft
Polojasno ve výšce 10000 ft
Dočasný
od 18 v 18 UTC do 19 v 24 UTC
Západní vítr 15 kt s nárazy do 25 kt
Viditelnost: 6000 m
Skoro jasno ve výšce 2500 ft, Cumulonimbus.
Oblačno až skoro zataženo ve výšce 3000 ft
Zataženo ve výšce 10000 ft
dešťové přeháňky

TAF: OSDI 181600Z 1818/1924 22010KT 9999 FEW030 SCT100 TEMPO 1818/1924 28015G25KT 6000 SHRA FEW025CB BKN030 OVC100

Stav a předpovědi počasí z více než 4 000 letišť (zprávy METAR a TAF).

Červené a žluté tečky na mapě představují dostupné meteorologické stanice.

Když kurzor umístíte na tečku, zobrazí se název stanice.

Pak kliknutím zobrazíte stav a předpověď počasí.

Chcete-li změnit mapu, kliknutím na zelené tlačítko se znaménkem +mapu přiblížíte, kliknutím na zelené tlačítko se znaménkem – mapu oddálíte a kliknutím na zelené šipky přejdete na sousední mapy.


METAR-TAF: